Time;durP1;ratioP1;P1;durP2;ratioP2;P2;SDS_P1;SDS_P2;PMS_P1;PMS_P2;Temp;Humidity;BMP_temperature;BMP_pressure;BME280_temperature;BME280_humidity;BME280_pressure;Samples;Min_cycle;Max_cycle;Signal;HPM_P1;HPM_P2
2023/07/14 00:00:14;;;;;;;4.90;3.97;;;16.50;99.90;;;;;;4953199;29;20281;-77
2023/07/14 00:02:41;;;;;;;4.93;4.43;;;16.50;99.90;;;;;;4948246;29;20665;-77
2023/07/14 00:05:17;;;;;;;5.10;3.40;;;16.40;99.90;;;;;;4945249;28;20226;-77
2023/07/14 00:07:49;;;;;;;5.17;2.93;;;16.40;99.90;;;;;;4945067;28;20202;-77
2023/07/14 00:10:20;;;;;;;5.33;2.80;;;16.40;99.90;;;;;;4959446;28;20211;-76
2023/07/14 00:12:48;;;;;;;3.27;2.90;;;16.30;99.90;;;;;;4947028;28;20205;-77
2023/07/14 00:15:16;;;;;;;3.30;2.83;;;16.30;99.90;;;;;;4948776;28;20632;-77
2023/07/14 00:17:44;;;;;;;4.23;3.77;;;16.20;99.90;;;;;;4950464;28;20251;-76
2023/07/14 00:20:24;;;;;;;5.10;4.70;;;16.20;99.90;;;;;;4953986;29;20347;-77
2023/07/14 00:22:51;;;;;;;6.00;5.40;;;16.10;99.90;;;;;;4954459;29;20190;-77
2023/07/14 00:25:19;;;;;;;5.40;5.00;;;16.10;99.90;;;;;;4942980;28;20249;-77
2023/07/14 00:27:46;;;;;;;5.70;5.23;;;16.10;99.90;;;;;;4947701;28;20273;-77
2023/07/14 00:30:16;;;;;;;6.13;5.63;;;16.00;99.90;;;;;;4946332;28;20643;-77
2023/07/14 00:32:44;;;;;;;6.10;5.60;;;16.00;99.90;;;;;;4939066;28;20629;-77
2023/07/14 00:35:19;;;;;;;4.50;3.07;;;16.00;99.90;;;;;;4944292;28;20263;-77
2023/07/14 00:37:48;;;;;;;5.90;5.50;;;16.10;99.90;;;;;;4946466;28;20709;-77
2023/07/14 00:40:17;;;;;;;5.87;5.37;;;16.00;99.90;;;;;;4948072;29;20323;-77
2023/07/14 00:42:45;;;;;;;5.87;5.40;;;16.00;99.90;;;;;;4953916;28;20198;-77
2023/07/14 00:45:17;;;;;;;5.53;5.13;;;16.00;99.90;;;;;;4950176;29;20206;-77
2023/07/14 00:47:45;;;;;;;5.73;5.17;;;16.00;99.90;;;;;;4943202;29;20206;-77
2023/07/14 00:50:19;;;;;;;3.23;2.47;;;15.90;99.90;;;;;;4950230;28;20285;-77
2023/07/14 00:52:48;;;;;;;3.23;2.60;;;15.90;99.90;;;;;;4944284;28;20210;-77
2023/07/14 00:55:30;;;;;;;3.43;2.80;;;15.90;99.90;;;;;;4945983;28;20211;-77
2023/07/14 00:57:58;;;;;;;3.57;2.70;;;15.90;99.90;;;;;;4947403;28;20260;-77
2023/07/14 01:00:30;;;;;;;3.33;2.40;;;15.90;99.90;;;;;;4950894;29;20202;-77
2023/07/14 01:02:57;;;;;;;3.67;2.60;;;15.90;99.90;;;;;;4952157;29;20207;-77
2023/07/14 01:05:25;;;;;;;2.80;2.47;;;15.80;99.90;;;;;;4942957;28;20209;-77
2023/07/14 01:07:54;;;;;;;5.47;4.97;;;15.90;99.90;;;;;;4941469;28;20556;-78
2023/07/14 01:10:27;;;;;;;7.57;5.00;;;15.90;99.90;;;;;;4947579;28;20207;-77
2023/07/14 01:12:58;;;;;;;3.93;2.57;;;15.90;99.90;;;;;;4937880;29;20202;-77
2023/07/14 01:15:25;;;;;;;3.07;2.77;;;15.90;99.90;;;;;;4946187;28;20309;-77
2023/07/14 01:17:53;;;;;;;3.77;2.73;;;15.90;99.90;;;;;;4946039;28;20223;-77
2023/07/14 01:20:21;;;;;;;3.97;2.70;;;15.80;99.90;;;;;;4950196;29;20277;-77
2023/07/14 01:23:00;;;;;;;3.23;2.50;;;15.80;99.90;;;;;;4946585;29;20241;-77
2023/07/14 01:25:42;;;;;;;2.60;2.40;;;15.80;99.90;;;;;;4955125;29;20205;-77
2023/07/14 01:28:13;;;;;;;3.57;2.97;;;15.80;99.90;;;;;;4952266;29;20206;-77
2023/07/14 01:30:43;;;;;;;2.63;2.40;;;15.80;99.90;;;;;;4938659;28;20267;-77
2023/07/14 01:33:15;;;;;;;3.00;2.70;;;15.80;99.90;;;;;;4939816;29;20207;-77
2023/07/14 01:35:46;;;;;;;2.87;2.63;;;15.80;99.90;;;;;;4942346;28;20202;-77
2023/07/14 01:38:13;;;;;;;3.43;2.70;;;15.70;99.90;;;;;;4949017;28;20221;-77
2023/07/14 01:40:41;;;;;;;5.60;3.03;;;15.80;99.90;;;;;;4945340;28;20261;-77
2023/07/14 01:43:12;;;;;;;4.53;2.60;;;15.80;99.90;;;;;;4943760;29;20286;-77
2023/07/14 01:45:46;;;;;;;4.87;3.17;;;15.80;99.90;;;;;;4950352;28;20207;-77
2023/07/14 01:48:17;;;;;;;3.53;2.63;;;15.80;99.90;;;;;;4949589;29;20754;-77
2023/07/14 01:50:49;;;;;;;3.57;2.70;;;15.80;99.90;;;;;;4946457;29;20299;-77
2023/07/14 01:53:20;;;;;;;2.77;2.57;;;15.80;99.90;;;;;;4940839;28;20229;-77
2023/07/14 01:55:48;;;;;;;6.37;3.10;;;15.80;99.90;;;;;;4933844;28;20297;-77
2023/07/14 01:58:22;;;;;;;3.67;2.90;;;15.70;99.90;;;;;;4931398;29;20715;-77
2023/07/14 02:00:52;;;;;;;3.50;3.00;;;15.80;99.90;;;;;;4929227;29;20215;-77
2023/07/14 02:03:24;;;;;;;3.93;2.60;;;15.70;99.90;;;;;;4925837;29;20678;-77
2023/07/14 02:05:51;;;;;;;2.80;2.60;;;15.70;99.90;;;;;;4948713;28;20265;-77
2023/07/14 02:08:24;;;;;;;3.80;2.63;;;15.70;99.90;;;;;;4946053;28;20225;-77
2023/07/14 02:10:50;;;;;;;4.67;2.70;;;15.60;99.90;;;;;;4945105;28;20202;-76
2023/07/14 02:13:19;;;;;;;3.43;2.93;;;15.60;99.90;;;;;;4945458;28;20221;-77
2023/07/14 02:15:46;;;;;;;3.17;2.60;;;15.50;99.90;;;;;;4948484;28;20231;-77
2023/07/14 02:18:17;;;;;;;3.30;2.87;;;15.50;99.90;;;;;;4949490;29;20218;-77
2023/07/14 02:20:47;;;;;;;3.37;2.70;;;15.40;99.90;;;;;;4931904;28;20210;-76
2023/07/14 02:23:17;;;;;;;5.57;3.50;;;15.30;99.90;;;;;;4938707;29;20285;-77
2023/07/14 02:25:52;;;;;;;5.67;3.30;;;15.20;99.90;;;;;;4946313;28;20585;-77
2023/07/14 02:28:20;;;;;;;4.47;3.03;;;15.20;99.90;;;;;;4947013;29;20716;-77
2023/07/14 02:30:51;;;;;;;2.70;2.50;;;15.20;99.90;;;;;;4937487;29;20254;-77
2023/07/14 02:33:24;;;;;;;6.10;5.70;;;15.10;99.90;;;;;;4949395;29;20208;-77
2023/07/14 02:35:59;;;;;;;6.50;6.00;;;15.20;99.90;;;;;;4942869;28;20202;-77
2023/07/14 02:38:26;;;;;;;3.87;3.37;;;15.20;99.90;;;;;;4940537;28;20676;-77
2023/07/14 02:40:55;;;;;;;4.50;3.30;;;15.30;99.90;;;;;;4936845;28;20554;-77
2023/07/14 02:43:24;;;;;;;6.67;3.40;;;15.30;99.90;;;;;;4944313;28;20281;-77
2023/07/14 02:45:55;;;;;;;3.83;3.43;;;15.30;99.90;;;;;;4947232;28;20195;-77
2023/07/14 02:48:26;;;;;;;4.23;3.30;;;15.30;99.90;;;;;;4944829;28;20223;-77
2023/07/14 02:50:53;;;;;;;4.47;3.10;;;15.30;99.90;;;;;;4949530;28;20213;-77
2023/07/14 02:53:19;;;;;;;4.13;3.37;;;15.20;99.90;;;;;;4949460;29;20204;-77
2023/07/14 02:55:46;;;;;;;3.30;3.00;;;15.20;99.90;;;;;;4923423;29;20219;-78
2023/07/14 02:58:13;;;;;;;6.63;6.03;;;15.10;99.90;;;;;;4920616;29;20217;-78
2023/07/14 03:00:41;;;;;;;4.77;3.07;;;15.10;99.90;;;;;;4930490;29;20799;-77
2023/07/14 03:03:08;;;;;;;3.43;3.13;;;15.00;99.90;;;;;;4932167;29;20210;-78
2023/07/14 03:05:35;;;;;;;3.93;3.53;;;15.00;99.90;;;;;;4933679;29;20983;-80
2023/07/14 03:08:02;;;;;;;6.67;3.57;;;14.90;99.90;;;;;;4930425;29;20575;-78
2023/07/14 03:10:29;;;;;;;8.83;7.90;;;14.90;99.90;;;;;;4931535;29;20682;-78
2023/07/14 03:12:56;;;;;;;5.37;4.87;;;14.80;99.90;;;;;;4932958;29;20210;-78
2023/07/14 03:15:24;;;;;;;5.27;3.40;;;14.70;99.90;;;;;;4933728;29;20216;-77
2023/07/14 03:17:52;;;;;;;4.17;3.53;;;14.60;99.90;;;;;;4928027;29;20220;-78
2023/07/14 03:20:19;;;;;;;4.47;3.40;;;14.50;99.90;;;;;;4936897;29;20214;-78
2023/07/14 03:22:46;;;;;;;4.97;3.20;;;14.50;99.90;;;;;;4937069;28;20208;-78
2023/07/14 03:25:13;;;;;;;3.77;3.27;;;14.50;99.90;;;;;;4944230;28;20548;-78
2023/07/14 03:27:40;;;;;;;4.73;3.70;;;14.50;99.90;;;;;;4948418;29;20197;-78
2023/07/14 03:30:08;;;;;;;5.57;3.70;;;14.40;99.90;;;;;;4945062;29;20259;-79
2023/07/14 03:32:35;;;;;;;6.93;3.63;;;14.40;99.90;;;;;;4954210;28;20233;-77
2023/07/14 03:35:04;;;;;;;7.00;6.27;;;14.40;99.90;;;;;;4952767;28;20204;-77
2023/07/14 03:37:30;;;;;;;5.57;5.07;;;14.30;99.90;;;;;;4951273;28;20233;-77
2023/07/14 03:39:57;;;;;;;4.20;3.47;;;14.30;99.90;;;;;;4948859;28;20259;-78
2023/07/14 03:42:24;;;;;;;3.83;3.43;;;14.30;99.90;;;;;;4939675;28;20197;-78
2023/07/14 03:44:51;;;;;;;4.10;3.63;;;14.30;99.90;;;;;;4951944;28;20208;-77
2023/07/14 03:47:18;;;;;;;5.27;4.87;;;14.30;99.90;;;;;;4945643;29;20297;-77
2023/07/14 03:49:44;;;;;;;3.97;3.53;;;14.30;99.90;;;;;;4932187;28;20247;-77
2023/07/14 03:52:13;;;;;;;4.83;3.00;;;14.30;99.90;;;;;;4943218;29;20207;-77
2023/07/14 03:54:40;;;;;;;3.63;3.20;;;14.40;99.90;;;;;;4946968;28;20347;-77
2023/07/14 03:57:07;;;;;;;6.73;3.80;;;14.40;99.90;;;;;;4942473;28;20674;-79
2023/07/14 03:59:34;;;;;;;3.63;3.30;;;14.40;99.90;;;;;;4948453;28;20700;-77
2023/07/14 04:02:01;;;;;;;3.63;3.20;;;14.30;99.90;;;;;;4941416;29;20238;-77
2023/07/14 04:04:30;;;;;;;4.50;3.53;;;14.30;99.90;;;;;;4945088;29;20204;-77
2023/07/14 04:06:57;;;;;;;4.83;3.63;;;14.40;99.90;;;;;;4951736;28;20210;-77
2023/07/14 04:09:26;;;;;;;4.13;3.20;;;14.40;99.90;;;;;;4949523;28;20225;-77
2023/07/14 04:11:53;;;;;;;3.57;3.23;;;14.50;99.90;;;;;;4952999;28;20728;-77
2023/07/14 04:14:19;;;;;;;4.23;3.23;;;14.50;99.90;;;;;;4953446;29;20662;-78
2023/07/14 04:16:46;;;;;;;4.50;3.53;;;14.60;99.90;;;;;;4951376;28;20213;-77
2023/07/14 04:19:13;;;;;;;5.73;5.23;;;14.70;99.90;;;;;;4954049;28;20279;-77
2023/07/14 04:21:40;;;;;;;6.57;6.03;;;14.80;99.90;;;;;;4950702;28;20643;-78
2023/07/14 04:24:07;;;;;;;5.60;5.10;;;14.90;99.90;;;;;;4949507;28;20217;-77
2023/07/14 04:26:36;;;;;;;4.77;4.37;;;15.10;99.90;;;;;;4947297;28;20219;-77
2023/07/14 04:29:05;;;;;;;5.30;3.53;;;15.10;99.90;;;;;;4949931;28;20228;-78
2023/07/14 04:31:32;;;;;;;3.90;2.93;;;15.20;99.90;;;;;;4954940;29;20202;-79
2023/07/14 04:33:59;;;;;;;5.10;4.70;;;15.30;99.90;;;;;;4945553;29;20252;-78
2023/07/14 04:36:26;;;;;;;4.83;4.43;;;15.30;99.90;;;;;;4953497;29;20217;-78
2023/07/14 04:39:05;;;;;;;7.10;6.10;;;15.40;99.90;;;;;;4951864;28;20628;-78
2023/07/14 04:41:32;;;;;;;6.10;5.37;;;15.50;99.90;;;;;;4950525;28;20262;-78
2023/07/14 04:44:03;;;;;;;6.23;5.73;;;15.70;99.90;;;;;;4952505;28;20218;-77
2023/07/14 04:46:29;;;;;;;7.30;6.70;;;15.80;99.90;;;;;;4945894;28;20261;-77
2023/07/14 04:48:56;;;;;;;7.43;6.73;;;15.90;99.90;;;;;;4951708;28;20226;-77
2023/07/14 04:51:23;;;;;;;6.10;5.63;;;16.10;99.90;;;;;;4946104;29;20199;-78
2023/07/14 04:53:50;;;;;;;4.63;3.60;;;16.30;99.90;;;;;;4950740;29;20202;-78
2023/07/14 04:56:17;;;;;;;3.50;3.03;;;16.40;99.90;;;;;;4948798;28;20214;-78
2023/07/14 04:58:44;;;;;;;5.67;4.00;;;16.70;99.90;;;;;;4947817;28;20254;-78
2023/07/14 05:01:12;;;;;;;3.30;2.93;;;16.90;99.90;;;;;;4940115;28;20199;-78
2023/07/14 05:03:39;;;;;;;5.00;3.37;;;17.00;99.90;;;;;;4940974;29;20204;-78
2023/07/14 05:06:05;;;;;;;3.20;2.70;;;17.00;99.90;;;;;;4945550;28;20275;-78
2023/07/14 05:08:32;;;;;;;3.47;3.10;;;17.10;99.90;;;;;;4943350;29;20324;-78
2023/07/14 05:10:59;;;;;;;6.40;5.90;;;17.10;99.90;;;;;;4954476;28;20553;-78
2023/07/14 05:13:26;;;;;;;3.83;2.73;;;17.10;99.90;;;;;;4950690;29;20199;-77
2023/07/14 05:15:52;;;;;;;7.27;6.67;;;17.00;99.90;;;;;;4945357;28;20233;-77
2023/07/14 05:18:21;;;;;;;4.50;3.27;;;17.10;99.90;;;;;;4943416;28;20590;-78
2023/07/14 05:20:47;;;;;;;4.10;3.20;;;17.20;99.90;;;;;;4943972;28;20245;-77
2023/07/14 05:23:14;;;;;;;5.23;3.30;;;17.30;99.90;;;;;;4945952;28;20322;-77
2023/07/14 05:25:41;;;;;;;4.47;3.73;;;17.50;99.90;;;;;;4936668;29;20227;-79
2023/07/14 05:28:09;;;;;;;6.30;5.70;;;17.70;99.90;;;;;;4943944;29;20192;-77
2023/07/14 05:30:36;;;;;;;4.73;3.37;;;17.90;99.90;;;;;;4950322;29;20257;-77
2023/07/14 05:33:04;;;;;;;3.80;2.93;;;17.80;99.90;;;;;;4943154;28;20197;-77
2023/07/14 05:35:32;;;;;;;6.13;3.20;;;17.80;99.90;;;;;;4941095;28;20577;-77
2023/07/14 05:37:59;;;;;;;6.93;6.23;;;17.80;99.90;;;;;;4938972;28;20624;-77
2023/07/14 05:40:26;;;;;;;3.77;3.00;;;17.80;99.90;;;;;;4944564;28;20218;-78
2023/07/14 05:42:53;;;;;;;4.97;3.13;;;17.90;99.90;;;;;;4941994;29;20230;-78
2023/07/14 05:45:20;;;;;;;4.87;3.13;;;18.00;99.90;;;;;;4949432;28;20729;-77
2023/07/14 05:47:48;;;;;;;3.73;2.77;;;18.20;99.90;;;;;;4953649;29;20213;-78
2023/07/14 05:50:15;;;;;;;4.30;3.30;;;18.30;99.90;;;;;;4945226;29;20654;-78
2023/07/14 05:52:43;;;;;;;4.23;3.83;;;18.60;99.90;;;;;;4942213;28;20197;-79
2023/07/14 05:55:11;;;;;;;3.77;3.00;;;18.80;99.90;;;;;;4942379;28;20262;-78
2023/07/14 05:57:38;;;;;;;8.23;6.50;;;18.90;99.90;;;;;;4929285;29;20210;-77
2023/07/14 06:00:12;;;;;;;5.47;4.97;;;18.90;99.90;;;;;;4930062;29;20250;-78
2023/07/14 06:02:40;;;;;;;5.13;3.53;;;18.90;99.90;;;;;;4932007;29;20574;-78
2023/07/14 06:05:09;;;;;;;7.00;6.30;;;18.90;99.90;;;;;;4939942;29;20296;-79
2023/07/14 06:07:36;;;;;;;7.27;4.70;;;19.10;99.90;;;;;;4946538;28;20667;-78
2023/07/14 06:10:05;;;;;;;6.23;4.70;;;19.40;99.90;;;;;;4952295;28;20210;-78
2023/07/14 06:12:33;;;;;;;4.87;4.07;;;19.90;99.90;;;;;;4948237;29;20194;-77
2023/07/14 06:15:00;;;;;;;9.20;5.63;;;20.60;99.90;;;;;;4941733;28;20234;-77
2023/07/14 06:17:27;;;;;;;7.07;6.37;;;20.90;99.90;;;;;;4939138;28;20205;-77
2023/07/14 06:19:54;;;;;;;6.17;5.67;;;20.80;99.90;;;;;;4939433;28;20289;-77
2023/07/14 06:22:21;;;;;;;6.40;5.80;;;21.10;99.90;;;;;;4939172;28;20203;-77
2023/07/14 06:24:49;;;;;;;4.83;3.43;;;21.30;99.90;;;;;;4945419;28;20211;-77
2023/07/14 06:27:17;;;;;;;5.17;4.67;;;21.40;99.90;;;;;;4946476;28;20267;-77
2023/07/14 06:29:45;;;;;;;8.37;4.70;;;21.60;99.90;;;;;;4950614;29;20226;-77
2023/07/14 06:32:12;;;;;;;6.77;3.10;;;22.00;99.90;;;;;;4941178;29;20201;-77
2023/07/14 06:34:38;;;;;;;7.77;6.77;;;22.40;99.90;;;;;;4949314;29;20203;-77
2023/07/14 06:37:06;;;;;;;7.13;6.43;;;22.90;99.90;;;;;;4945737;28;20194;-77
2023/07/14 06:39:33;;;;;;;7.20;6.60;;;23.00;99.90;;;;;;4945320;28;20848;-76
2023/07/14 06:41:59;;;;;;;4.33;2.83;;;23.50;99.90;;;;;;4925604;29;20604;-75
2023/07/14 06:44:28;;;;;;;6.27;5.73;;;23.70;99.90;;;;;;4942955;28;20200;-75
2023/07/14 06:46:54;;;;;;;6.80;5.50;;;24.10;99.90;;;;;;4947756;29;20257;-75
2023/07/14 06:49:21;;;;;;;6.70;6.10;;;23.60;99.90;;;;;;4940555;29;20287;-76
2023/07/14 06:51:48;;;;;;;6.67;6.07;;;23.70;99.90;;;;;;4950138;29;20285;-75
2023/07/14 06:54:15;;;;;;;6.40;5.50;;;23.90;99.90;;;;;;4939623;28;20617;-75
2023/07/14 06:56:42;;;;;;;5.67;5.17;;;24.00;99.90;;;;;;4940190;29;20285;-75
2023/07/14 06:59:09;;;;;;;7.27;4.37;;;23.80;99.90;;;;;;4941402;28;20648;-75
2023/07/14 07:01:37;;;;;;;5.97;4.60;;;23.70;99.90;;;;;;4939335;28;20200;-75
2023/07/14 07:04:04;;;;;;;4.23;3.50;;;24.10;99.90;;;;;;4945078;28;20222;-75
2023/07/14 07:06:31;;;;;;;4.97;4.50;;;24.70;99.90;;;;;;4946004;28;20267;-75
2023/07/14 07:08:58;;;;;;;5.00;4.50;;;25.00;99.90;;;;;;4955031;29;20276;-75
2023/07/14 07:11:25;;;;;;;4.67;3.50;;;25.20;99.90;;;;;;4947396;29;20269;-75
2023/07/14 07:13:51;;;;;;;4.63;3.20;;;25.20;99.90;;;;;;4940245;28;20199;-75
2023/07/14 07:16:18;;;;;;;5.77;5.00;;;25.30;99.90;;;;;;4949838;28;20212;-75
2023/07/14 07:18:47;;;;;;;5.03;4.70;;;25.30;99.90;;;;;;4951852;29;20222;-75
2023/07/14 07:21:13;;;;;;;5.93;5.43;;;25.50;99.90;;;;;;4944240;28;20203;-75
2023/07/14 07:23:40;;;;;;;6.50;5.93;;;25.30;99.90;;;;;;4942845;28;20277;-77
2023/07/14 07:26:08;;;;;;;6.73;6.03;;;25.50;99.90;;;;;;4934125;29;20202;-75
2023/07/14 07:28:35;;;;;;;5.87;5.43;;;25.20;99.90;;;;;;4947783;28;20310;-75
2023/07/14 07:31:09;;;;;;;9.20;5.67;;;25.30;99.90;;;;;;4934182;28;20269;-77
2023/07/14 07:33:36;;;;;;;5.40;4.90;;;25.90;99.90;;;;;;4945861;28;20582;-75
2023/07/14 07:36:14;;;;;;;6.33;5.77;;;26.20;99.90;;;;;;4952155;28;20195;-75
2023/07/14 07:38:43;;;;;;;6.07;5.57;;;26.50;99.90;;;;;;4950332;29;20218;-74
2023/07/14 07:41:10;;;;;;;7.13;5.47;;;26.50;99.90;;;;;;4932841;29;20218;-75
2023/07/14 07:43:38;;;;;;;6.23;5.50;;;26.90;99.90;;;;;;4940541;28;20620;-75
2023/07/14 07:46:04;;;;;;;6.10;5.60;;;27.10;99.90;;;;;;4949599;28;20198;-75
2023/07/14 07:48:31;;;;;;;6.47;5.87;;;27.40;99.90;;;;;;4947060;28;20222;-75
2023/07/14 07:50:58;;;;;;;7.83;5.60;;;27.40;99.90;;;;;;4938581;28;20698;-75
2023/07/14 07:53:26;;;;;;;6.50;5.73;;;27.30;99.90;;;;;;4945920;28;20211;-75
2023/07/14 07:55:54;;;;;;;6.57;5.93;;;27.10;99.90;;;;;;4940930;29;20199;-75
2023/07/14 07:58:24;;;;;;;6.43;5.83;;;27.10;99.90;;;;;;4942134;28;20226;-75
2023/07/14 08:00:51;;;;;;;6.40;5.80;;;27.00;99.90;;;;;;4949891;29;20246;-75
2023/07/14 08:03:18;;;;;;;6.60;6.00;;;27.20;99.90;;;;;;4943501;29;20277;-74
2023/07/14 08:05:45;;;;;;;8.40;6.20;;;27.40;99.90;;;;;;4944778;28;20202;-75
2023/07/14 08:08:12;;;;;;;6.57;5.90;;;27.40;99.90;;;;;;4940894;28;20210;-75
2023/07/14 08:10:43;;;;;;;6.53;6.00;;;27.80;99.90;;;;;;4941451;28;20223;-75
2023/07/14 08:13:10;;;;;;;6.53;5.93;;;28.00;99.90;;;;;;4948674;29;20222;-75
2023/07/14 08:15:37;;;;;;;7.07;6.00;;;28.00;99.20;;;;;;4948156;28;20203;-75
2023/07/14 08:18:06;;;;;;;6.93;6.23;;;28.00;99.90;;;;;;4952741;28;20203;-75
2023/07/14 08:20:33;;;;;;;6.73;6.13;;;28.10;99.80;;;;;;4938236;29;20226;-74
2023/07/14 08:23:02;;;;;;;6.30;5.67;;;28.10;99.60;;;;;;4942042;28;20202;-75
2023/07/14 08:25:29;;;;;;;5.27;4.83;;;28.30;99.90;;;;;;4940502;28;20286;-75
2023/07/14 08:27:57;;;;;;;6.50;5.70;;;28.50;99.90;;;;;;4947063;28;20696;-75
2023/07/14 08:30:24;;;;;;;8.23;5.97;;;28.80;99.50;;;;;;4946254;28;20724;-75
2023/07/14 08:32:51;;;;;;;7.00;6.30;;;28.70;99.60;;;;;;4943808;28;20206;-75
2023/07/14 08:35:18;;;;;;;6.60;6.00;;;28.30;98.20;;;;;;4942065;28;20696;-75
2023/07/14 08:37:46;;;;;;;6.70;6.10;;;28.40;98.90;;;;;;4949007;29;20265;-76
2023/07/14 08:40:16;;;;;;;6.50;5.97;;;28.50;99.10;;;;;;4933973;28;20262;-75
2023/07/14 08:42:50;;;;;;;6.60;6.00;;;28.30;99.30;;;;;;4940518;28;20257;-76
2023/07/14 08:45:37;;;;;;;6.57;6.00;;;28.50;99.70;;;;;;4940519;28;20194;-75
2023/07/14 08:48:15;;;;;;;5.03;4.43;;;28.10;98.40;;;;;;4946153;28;20560;-76
2023/07/14 08:50:45;;;;;;;5.63;5.23;;;28.20;99.40;;;;;;4936793;28;20678;-75
2023/07/14 08:53:24;;;;;;;6.33;5.73;;;28.30;98.10;;;;;;4945526;29;20198;-76
2023/07/14 08:55:53;;;;;;;6.10;5.60;;;28.50;99.50;;;;;;4938506;28;20305;-76
2023/07/14 08:58:24;;;;;;;6.37;5.87;;;28.90;99.40;;;;;;4935888;28;20226;-76
2023/07/14 09:01:05;;;;;;;6.17;5.60;;;29.10;98.00;;;;;;4929152;29;20227;-75
2023/07/14 09:03:42;;;;;;;6.30;5.80;;;29.00;96.60;;;;;;4931950;29;20209;-76
2023/07/14 09:06:18;;;;;;;6.43;5.93;;;28.90;97.50;;;;;;4939346;29;20209;-75
2023/07/14 09:08:45;;;;;;;6.13;5.63;;;28.90;98.60;;;;;;4945541;28;20230;-75
2023/07/14 09:11:35;;;;;;;6.20;5.80;;;29.10;97.50;;;;;;4945892;28;20298;-75
2023/07/14 09:14:13;;;;;;;6.00;5.47;;;29.10;96.20;;;;;;4942034;28;20215;-76
2023/07/14 09:17:02;;;;;;;5.53;4.30;;;28.90;96.80;;;;;;4934811;28;20243;-76
2023/07/14 09:19:46;;;;;;;6.10;5.50;;;29.30;97.00;;;;;;4945080;29;20216;-75
2023/07/14 09:22:19;;;;;;;5.33;4.60;;;29.50;96.60;;;;;;4948484;29;20196;-75
2023/07/14 09:24:56;;;;;;;6.17;5.47;;;29.80;96.70;;;;;;4944310;29;20670;-75
2023/07/14 09:27:26;;;;;;;6.97;6.37;;;29.90;94.30;;;;;;4945091;29;20201;-76
2023/07/14 09:29:55;;;;;;;6.47;5.93;;;29.60;93.30;;;;;;4946812;28;20223;-76
2023/07/14 09:32:32;;;;;;;4.33;4.00;;;29.40;94.70;;;;;;4941794;29;20198;-76
2023/07/14 09:35:01;;;;;;;5.40;4.90;;;29.80;96.30;;;;;;4940258;28;20222;-76
2023/07/14 09:37:33;;;;;;;5.57;5.10;;;30.00;93.20;;;;;;4939576;28;20209;-76
2023/07/14 09:40:15;;;;;;;6.57;5.10;;;30.10;94.20;;;;;;4938805;28;20216;-75
2023/07/14 09:42:43;;;;;;;5.47;5.00;;;30.00;93.40;;;;;;4944740;28;20684;-76
2023/07/14 09:45:16;;;;;;;5.60;5.10;;;29.60;93.40;;;;;;4944691;28;20269;-75
2023/07/14 09:47:47;;;;;;;5.93;5.33;;;29.50;93.60;;;;;;4944848;28;20198;-75
2023/07/14 09:50:16;;;;;;;6.70;6.10;;;29.50;95.20;;;;;;4950641;29;20223;-75
2023/07/14 09:52:52;;;;;;;5.83;4.77;;;29.30;92.70;;;;;;4945474;29;20257;-75
2023/07/14 09:55:20;;;;;;;5.50;5.00;;;29.10;92.90;;;;;;4929187;28;20606;-75
2023/07/14 09:57:50;;;;;;;5.37;4.90;;;29.10;93.20;;;;;;4925263;29;20640;-76
2023/07/14 10:00:21;;;;;;;5.20;4.80;;;29.20;93.50;;;;;;4932781;29;20223;-75
2023/07/14 10:03:03;;;;;;;4.43;4.10;;;28.80;93.30;;;;;;4925879;28;20683;-75
2023/07/14 10:05:45;;;;;;;4.70;4.37;;;28.90;92.40;;;;;;4941959;29;20202;-76
2023/07/14 10:08:31;;;;;;;4.73;4.33;;;28.60;93.10;;;;;;4943068;28;20232;-75
2023/07/14 10:11:00;;;;;;;4.87;4.47;;;28.60;94.50;;;;;;4942356;28;20199;-76
2023/07/14 10:13:31;;;;;;;9.17;5.53;;;28.70;94.20;;;;;;4940383;28;20695;-76
2023/07/14 10:16:04;;;;;;;6.40;5.80;;;28.70;94.10;;;;;;4940426;28;20200;-75
2023/07/14 10:18:45;;;;;;;6.00;5.60;;;28.60;93.40;;;;;;4945042;28;20774;-76
2023/07/14 10:21:22;;;;;;;6.20;5.73;;;28.70;94.50;;;;;;4944596;29;20774;-76
2023/07/14 10:24:04;;;;;;;5.03;4.10;;;28.50;93.30;;;;;;4939098;28;20198;-76
2023/07/14 10:26:34;;;;;;;4.60;4.20;;;28.40;93.30;;;;;;4942752;29;20281;-76
2023/07/14 10:29:04;;;;;;;4.33;4.00;;;28.60;94.10;;;;;;4944759;28;20246;-76
2023/07/14 10:31:38;;;;;;;4.30;3.97;;;28.80;93.40;;;;;;4939751;28;20610;-76
2023/07/14 10:34:25;;;;;;;4.50;4.13;;;28.90;92.60;;;;;;4938625;28;20683;-78
2023/07/14 10:36:56;;;;;;;4.30;4.00;;;29.20;91.10;;;;;;4940050;28;20208;-79
2023/07/14 10:39:38;;;;;;;4.37;4.00;;;29.20;91.30;;;;;;4931555;29;20660;-78
2023/07/14 10:42:10;;;;;;;4.30;4.00;;;29.50;93.80;;;;;;4940464;29;20279;-78
2023/07/14 10:44:42;;;;;;;4.50;4.20;;;29.50;92.80;;;;;;4949562;28;20199;-79
2023/07/14 10:47:15;;;;;;;4.70;4.30;;;29.50;92.00;;;;;;4949813;29;20298;-78
2023/07/14 10:49:47;;;;;;;4.73;4.30;;;29.40;92.20;;;;;;4944367;28;20237;-77
2023/07/14 10:52:21;;;;;;;4.80;4.40;;;29.30;92.10;;;;;;4941212;28;20194;-79
2023/07/14 10:54:52;;;;;;;4.20;3.90;;;29.00;91.40;;;;;;4929755;28;20199;-78
2023/07/14 10:57:38;;;;;;;4.90;4.30;;;29.00;93.60;;;;;;4936882;28;20344;-78
2023/07/14 11:00:19;;;;;;;4.87;4.50;;;29.10;91.50;;;;;;4945755;28;20229;-78
2023/07/14 11:02:51;;;;;;;6.77;5.13;;;29.10;92.00;;;;;;4938815;29;20676;-78
2023/07/14 11:05:22;;;;;;;6.10;5.70;;;29.10;92.30;;;;;;4931098;29;20979;-78
2023/07/14 11:07:49;;;;;;;5.57;5.17;;;29.10;92.10;;;;;;4936714;29;20278;-78
2023/07/14 11:10:24;;;;;;;5.93;5.43;;;29.10;92.60;;;;;;4938398;28;20226;-78
2023/07/14 11:12:58;;;;;;;4.87;4.50;;;29.00;91.30;;;;;;4945338;28;20668;-78
2023/07/14 11:15:32;;;;;;;4.60;4.17;;;29.00;91.70;;;;;;4940933;29;20261;-78
2023/07/14 11:18:06;;;;;;;5.50;4.57;;;28.90;92.80;;;;;;4942741;28;20262;-77
2023/07/14 11:20:40;;;;;;;3.73;3.27;;;28.80;91.70;;;;;;4941508;28;20258;-78
2023/07/14 11:23:24;;;;;;;5.57;2.70;;;28.80;91.80;;;;;;4940551;28;20207;-77
2023/07/14 11:25:59;;;;;;;4.53;2.30;;;28.70;92.50;;;;;;4931709;28;20259;-78
2023/07/14 11:28:35;;;;;;;2.27;2.07;;;28.60;90.70;;;;;;4932504;29;20277;-78
2023/07/14 11:31:12;;;;;;;4.23;2.23;;;28.80;92.30;;;;;;4939906;28;20251;-78
2023/07/14 11:33:47;;;;;;;4.67;2.60;;;28.80;91.90;;;;;;4942907;28;20546;-78
2023/07/14 11:36:23;;;;;;;3.27;2.30;;;28.80;91.90;;;;;;4948964;29;20206;-77
2023/07/14 11:38:57;;;;;;;2.47;2.07;;;28.80;91.80;;;;;;4942225;29;20235;-78
2023/07/14 11:41:25;;;;;;;2.20;2.00;;;28.70;91.40;;;;;;4937624;28;20237;-78
2023/07/14 11:43:53;;;;;;;2.33;2.13;;;28.80;91.50;;;;;;4938341;28;20672;-78
2023/07/14 11:46:22;;;;;;;3.60;2.20;;;28.80;92.10;;;;;;4945607;28;20211;-79
2023/07/14 11:49:03;;;;;;;3.90;3.60;;;28.70;92.50;;;;;;4943508;28;20273;-78
2023/07/14 11:51:50;;;;;;;3.40;3.20;;;28.80;92.50;;;;;;4942199;28;20182;-78
2023/07/14 11:54:19;;;;;;;3.70;3.40;;;28.90;90.70;;;;;;4941515;28;20199;-78
2023/07/14 11:57:03;;;;;;;3.70;3.40;;;28.90;91.90;;;;;;4945127;28;20721;-78
2023/07/14 11:59:31;;;;;;;3.80;3.43;;;28.90;91.10;;;;;;4934088;28;20225;-78
2023/07/14 12:02:26;;;;;;;4.10;3.70;;;28.60;89.00;;;;;;4941057;28;20275;-75
2023/07/14 12:05:04;;;;;;;4.63;2.80;;;28.80;91.30;;;;;;4934685;29;20203;-77
2023/07/14 12:07:35;;;;;;;3.20;2.90;;;29.00;87.60;;;;;;4934873;29;20282;-78
2023/07/14 12:10:12;;;;;;;3.90;3.60;;;29.10;91.00;;;;;;4940132;29;20220;-78
2023/07/14 12:12:40;;;;;;;3.17;2.97;;;29.20;88.30;;;;;;4938360;29;20649;-77
2023/07/14 12:15:42;;;;;;;3.40;3.10;;;28.80;89.40;;;;;;4951671;29;20257;-78
2023/07/14 12:18:27;;;;;;;4.83;3.30;;;28.70;91.10;;;;;;4950245;29;20261;-77
2023/07/14 12:21:30;;;;;;;3.87;2.90;;;28.90;90.80;;;;;;4943069;29;20221;-77
2023/07/14 12:24:04;;;;;;;3.70;2.80;;;29.10;91.00;;;;;;4943799;29;20200;-77
2023/07/14 12:26:36;;;;;;;4.03;2.90;;;29.30;91.70;;;;;;4936689;29;20198;-77
2023/07/14 12:29:12;;;;;;;3.40;2.80;;;29.30;90.30;;;;;;4948931;29;20222;-77
2023/07/14 12:31:39;;;;;;;3.40;3.10;;;29.50;90.50;;;;;;4934808;29;20194;-78
2023/07/14 12:34:06;;;;;;;2.93;2.73;;;29.50;89.90;;;;;;4939075;29;20557;-79
2023/07/14 12:36:33;;;;;;;3.63;3.00;;;29.50;90.90;;;;;;4947210;28;20668;-77
2023/07/14 12:39:04;;;;;;;3.43;2.67;;;29.30;88.90;;;;;;4944119;28;20229;-78
2023/07/14 12:41:36;;;;;;;2.53;2.10;;;29.00;90.90;;;;;;4940321;28;20216;-77
2023/07/14 12:44:03;;;;;;;2.50;2.30;;;28.90;90.80;;;;;;4935772;29;20196;-75
2023/07/14 12:46:34;;;;;;;5.67;5.17;;;28.80;90.50;;;;;;4941444;29;20712;-76
2023/07/14 12:49:03;;;;;;;4.90;4.60;;;29.00;89.70;;;;;;4940320;29;20218;-76
2023/07/14 12:51:34;;;;;;;4.33;3.93;;;28.90;90.10;;;;;;4954164;29;20274;-75
2023/07/14 12:54:06;;;;;;;4.00;3.70;;;28.50;88.80;;;;;;4947045;29;20233;-75
2023/07/14 12:56:34;;;;;;;4.57;4.27;;;28.20;88.60;;;;;;4944263;28;20195;-76
2023/07/14 12:59:02;;;;;;;4.70;4.30;;;28.10;90.20;;;;;;4940210;28;20262;-76
2023/07/14 13:01:29;;;;;;;4.20;3.90;;;28.00;89.20;;;;;;4944831;28;20321;-76
2023/07/14 13:03:56;;;;;;;4.90;4.53;;;28.00;91.10;;;;;;4943837;28;20231;-75